Time;durP1;ratioP1;P1;durP2;ratioP2;P2;SDS_P1;SDS_P2;PMS_P1;PMS_P2;Temp;Humidity;BMP_temperature;BMP_pressure;BME280_temperature;BME280_humidity;BME280_pressure;Samples;Min_cycle;Max_cycle;Signal;HPM_P1;HPM_P2
2021/01/31 00:00:35;;;;;;;25.08;14.50;;;-1.10;99.90;;;;;;5055810;28;20090;-87
2021/01/31 00:03:03;;;;;;;25.43;15.53;;;-1.20;99.90;;;;;;5048992;28;20029;-86
2021/01/31 00:05:29;;;;;;;28.13;15.52;;;-1.20;99.90;;;;;;5051263;28;20259;-89
2021/01/31 00:07:54;;;;;;;26.80;15.05;;;-1.20;99.90;;;;;;5045571;28;20037;-86
2021/01/31 00:10:31;;;;;;;27.15;15.60;;;-1.20;99.90;;;;;;5065475;28;20488;-86
2021/01/31 00:12:59;;;;;;;28.00;16.05;;;-1.10;99.90;;;;;;5072034;28;20485;-85
2021/01/31 00:15:29;;;;;;;26.33;14.95;;;-1.20;99.90;;;;;;5053353;28;20042;-87
2021/01/31 00:17:56;;;;;;;24.15;14.00;;;-1.20;99.90;;;;;;5042744;28;20523;-86
2021/01/31 00:20:24;;;;;;;25.00;14.05;;;-1.20;99.90;;;;;;5043904;28;20135;-88
2021/01/31 00:22:49;;;;;;;23.17;13.90;;;-1.30;99.90;;;;;;5050728;28;20563;-87
2021/01/31 00:25:16;;;;;;;25.30;15.23;;;-1.30;99.90;;;;;;5068006;28;20136;-86
2021/01/31 00:27:42;;;;;;;22.55;14.00;;;-1.30;99.90;;;;;;5052799;28;20020;-88
2021/01/31 00:30:15;;;;;;;26.55;15.88;;;-1.30;99.90;;;;;;5052850;28;20028;-86
2021/01/31 00:32:40;;;;;;;18.63;10.70;;;-1.30;99.90;;;;;;5050781;28;20017;-87
2021/01/31 00:35:07;;;;;;;24.40;14.27;;;-1.30;99.90;;;;;;5051367;28;20043;-87
2021/01/31 00:37:32;;;;;;;23.00;13.82;;;-1.30;99.90;;;;;;5052024;28;20659;-87
2021/01/31 00:39:58;;;;;;;22.50;13.43;;;-1.30;99.90;;;;;;5055256;28;20021;-87
2021/01/31 00:42:24;;;;;;;24.30;14.15;;;-1.30;99.90;;;;;;5073251;28;20064;-87
2021/01/31 00:44:52;;;;;;;23.20;14.00;;;-1.40;99.90;;;;;;5055771;28;20701;-88
2021/01/31 00:47:20;;;;;;;25.63;15.65;;;-1.40;99.90;;;;;;5055757;28;20064;-89
2021/01/31 00:49:48;;;;;;;26.80;15.70;;;-1.40;99.90;;;;;;5055692;28;20516;-86
2021/01/31 00:52:14;;;;;;;26.38;14.23;;;-1.50;99.90;;;;;;5072096;28;20354;-88
2021/01/31 00:54:42;;;;;;;27.63;15.57;;;-1.40;99.90;;;;;;5070275;28;20016;-86
2021/01/31 00:57:08;;;;;;;25.13;15.30;;;-1.50;99.90;;;;;;5082409;28;20695;-87
2021/01/31 00:59:34;;;;;;;25.85;15.90;;;-1.50;99.90;;;;;;5067454;28;20069;-85
2021/01/31 01:02:04;;;;;;;24.85;15.32;;;-1.50;99.90;;;;;;5058264;28;20032;-86
2021/01/31 01:04:30;;;;;;;28.25;15.75;;;-1.50;99.90;;;;;;5058292;28;20396;-87
2021/01/31 01:06:55;;;;;;;24.35;13.90;;;-1.50;99.90;;;;;;5067734;28;20143;-85
2021/01/31 01:09:21;;;;;;;26.05;15.55;;;-1.50;99.90;;;;;;5054154;28;20420;-87
2021/01/31 01:11:46;;;;;;;26.15;14.07;;;-1.50;99.90;;;;;;5054319;28;20029;-87
2021/01/31 01:14:12;;;;;;;26.50;16.58;;;-1.60;99.90;;;;;;5072448;28;20027;-87
2021/01/31 01:16:38;;;;;;;28.70;15.50;;;-1.60;99.90;;;;;;5060546;28;20066;-84
2021/01/31 01:19:04;;;;;;;22.73;13.93;;;-1.60;99.90;;;;;;5075306;28;20067;-86
2021/01/31 01:21:31;;;;;;;25.02;15.52;;;-1.60;99.90;;;;;;5091967;28;20039;-86
2021/01/31 01:23:58;;;;;;;26.80;15.48;;;-1.60;99.90;;;;;;5113840;28;20077;-86
2021/01/31 01:26:31;;;;;;;23.33;14.45;;;-1.60;99.90;;;;;;5107421;28;20467;-86
2021/01/31 01:28:57;;;;;;;26.10;15.15;;;-1.60;99.90;;;;;;5097705;28;20416;-86
2021/01/31 01:31:23;;;;;;;25.45;14.85;;;-1.60;99.90;;;;;;5072359;28;20024;-85
2021/01/31 01:33:49;;;;;;;23.75;14.10;;;-1.60;99.90;;;;;;5073231;28;20052;-84
2021/01/31 01:36:15;;;;;;;23.73;13.85;;;-1.60;99.90;;;;;;5092254;28;20066;-87
2021/01/31 01:38:41;;;;;;;24.63;14.27;;;-1.70;99.90;;;;;;5072284;28;20033;-87
2021/01/31 01:41:07;;;;;;;27.08;14.95;;;-1.70;99.90;;;;;;5091585;28;20036;-86
2021/01/31 01:43:32;;;;;;;21.98;14.23;;;-1.70;99.90;;;;;;5070601;28;20039;-86
2021/01/31 01:46:18;;;;;;;26.77;15.85;;;-1.70;99.90;;;;;;5086847;28;20021;-86
2021/01/31 01:48:49;;;;;;;25.52;15.60;;;-1.70;99.90;;;;;;5076976;28;20119;-86
2021/01/31 01:51:26;;;;;;;25.42;14.52;;;-1.70;99.90;;;;;;5081152;28;20047;-87
2021/01/31 01:53:52;;;;;;;24.48;14.95;;;-1.70;99.90;;;;;;5094725;28;20027;-87
2021/01/31 01:56:27;;;;;;;23.38;14.13;;;-1.70;99.90;;;;;;5092026;28;20024;-87
2021/01/31 01:58:56;;;;;;;23.63;14.32;;;-1.70;99.90;;;;;;5097133;28;20032;-86
2021/01/31 02:01:23;;;;;;;24.40;15.05;;;-1.70;99.90;;;;;;5079114;28;20698;-87
2021/01/31 02:03:52;;;;;;;24.25;14.85;;;-1.70;99.90;;;;;;5077275;28;20028;-83
2021/01/31 02:06:22;;;;;;;24.85;14.13;;;-1.70;99.90;;;;;;5069317;28;20067;-85
2021/01/31 02:08:49;;;;;;;28.00;15.80;;;-1.70;99.90;;;;;;5072441;28;20024;-86
2021/01/31 02:11:18;;;;;;;25.88;15.20;;;-1.70;99.90;;;;;;5090741;28;20067;-85
2021/01/31 02:13:52;;;;;;;24.08;14.30;;;-1.70;99.90;;;;;;5071371;28;20087;-88
2021/01/31 02:16:41;;;;;;;24.20;14.45;;;-1.70;99.90;;;;;;5072205;28;20029;-87
2021/01/31 02:19:24;;;;;;;25.25;14.45;;;-1.70;99.90;;;;;;5105742;28;20036;-87
2021/01/31 02:22:11;;;;;;;25.38;15.48;;;-1.70;99.90;;;;;;5092103;28;20034;-86
2021/01/31 02:25:14;;;;;;;21.13;13.10;;;-1.70;99.90;;;;;;5080713;28;20028;-87
2021/01/31 02:27:46;;;;;;;26.42;16.20;;;-1.70;99.90;;;;;;5083077;28;20116;-88
2021/01/31 02:30:30;;;;;;;25.13;14.68;;;-1.70;99.90;;;;;;5098131;28;20085;-88
2021/01/31 02:33:24;;;;;;;22.15;13.50;;;-1.70;99.90;;;;;;5091305;28;20028;-88
2021/01/31 02:35:55;;;;;;;21.38;13.20;;;-1.70;99.90;;;;;;5086300;28;20087;-88
2021/01/31 02:38:53;;;;;;;24.27;14.38;;;-1.70;99.90;;;;;;5082770;28;20104;-86
2021/01/31 02:41:27;;;;;;;24.42;14.90;;;-1.80;99.90;;;;;;5062858;28;20036;-87
2021/01/31 02:43:56;;;;;;;25.02;15.00;;;-1.70;99.90;;;;;;5067462;28;20026;-88
2021/01/31 02:46:25;;;;;;;26.65;15.88;;;-1.80;99.90;;;;;;5082321;28;20096;-87
2021/01/31 02:49:04;;;;;;;22.60;13.38;;;-1.80;99.90;;;;;;5076896;28;20485;-89
2021/01/31 02:51:58;;;;;;;22.17;13.98;;;-1.80;99.90;;;;;;5068412;28;20037;-89
2021/01/31 02:54:27;;;;;;;;;;;-1.80;99.90;;;;;;5073300;28;20120;-89
2021/01/31 02:57:01;;;;;;;24.38;12.77;;;-1.80;99.90;;;;;;5075510;28;19904;-89
2021/01/31 03:00:06;;;;;;;21.70;12.52;;;-1.90;99.90;;;;;;5072480;28;20088;-88
2021/01/31 03:02:38;;;;;;;22.40;12.48;;;-1.90;99.90;;;;;;4995645;28;20026;-87
2021/01/31 03:05:20;;;;;;;23.38;13.85;;;-1.90;99.90;;;;;;5059304;28;20033;-88
2021/01/31 03:08:24;;;;;;;22.73;12.57;;;-1.90;99.90;;;;;;5092799;28;20031;-87
2021/01/31 03:11:11;;;;;;;19.88;11.35;;;-1.90;99.90;;;;;;5075205;28;20029;-87
2021/01/31 03:13:40;;;;;;;23.20;13.13;;;-1.90;99.90;;;;;;5072809;28;20565;-87
2021/01/31 03:16:16;;;;;;;23.10;13.88;;;-2.00;99.90;;;;;;5094097;28;20035;-88
2021/01/31 03:18:47;;;;;;;21.55;12.95;;;-1.90;99.90;;;;;;5094477;28;20111;-87
2021/01/31 03:21:29;;;;;;;23.58;13.90;;;-1.90;99.90;;;;;;5072710;28;20041;-87
2021/01/31 03:24:04;;;;;;;20.75;12.80;;;-2.00;99.90;;;;;;5067238;28;20035;-87
2021/01/31 03:26:46;;;;;;;21.88;12.80;;;-2.00;99.90;;;;;;5093799;28;20418;-88
2021/01/31 03:29:12;;;;;;;20.90;12.45;;;-2.00;99.90;;;;;;5093542;28;20469;-87
2021/01/31 03:31:43;;;;;;;22.05;12.43;;;-2.00;99.90;;;;;;5075849;28;20050;-88
2021/01/31 03:34:11;;;;;;;22.48;14.52;;;-2.00;99.90;;;;;;5075887;28;20027;-88
2021/01/31 03:36:42;;;;;;;23.77;14.10;;;-2.00;99.90;;;;;;5075604;28;20028;-87
2021/01/31 03:39:09;;;;;;;20.80;12.45;;;-2.10;99.90;;;;;;5076008;28;20112;-87
2021/01/31 03:41:35;;;;;;;19.77;11.90;;;-2.00;99.90;;;;;;5075815;28;20063;-87
2021/01/31 03:44:00;;;;;;;22.05;12.82;;;-2.10;99.90;;;;;;5093652;28;20024;-87
2021/01/31 03:46:32;;;;;;;20.17;12.10;;;-2.10;99.90;;;;;;5075604;28;20012;-88
2021/01/31 03:49:20;;;;;;;19.70;10.63;;;-2.10;99.90;;;;;;5075720;28;20081;-88
2021/01/31 03:51:47;;;;;;;21.48;12.38;;;-2.10;99.90;;;;;;5094129;28;20029;-88
2021/01/31 03:54:13;;;;;;;19.75;11.50;;;-2.10;99.90;;;;;;5075962;28;20023;-89
2021/01/31 03:56:54;;;;;;;21.25;12.35;;;-2.10;99.90;;;;;;5094243;28;20016;-88
2021/01/31 03:59:26;;;;;;;21.67;12.65;;;-2.10;99.90;;;;;;5075724;28;20115;-89
2021/01/31 04:01:54;;;;;;;21.58;11.95;;;-2.10;99.90;;;;;;5075978;28;20081;-88
2021/01/31 04:04:39;;;;;;;21.48;12.15;;;-2.10;99.90;;;;;;5093460;28;20020;-88
2021/01/31 04:07:07;;;;;;;24.48;14.13;;;-2.10;99.90;;;;;;5093586;28;20024;-88
2021/01/31 04:09:36;;;;;;;24.35;13.65;;;-2.00;99.90;;;;;;5093225;28;20025;-88
2021/01/31 04:12:06;;;;;;;22.60;13.18;;;-2.10;99.90;;;;;;5093983;28;20111;-88
2021/01/31 04:14:49;;;;;;;22.42;14.30;;;-2.00;99.90;;;;;;5079449;28;20461;-88
2021/01/31 04:17:15;;;;;;;20.55;12.23;;;-2.10;99.90;;;;;;5079523;28;20362;-89
2021/01/31 04:19:41;;;;;;;24.00;13.25;;;-2.10;99.90;;;;;;5079267;28;20051;-89
2021/01/31 04:22:06;;;;;;;20.50;12.40;;;-2.10;99.90;;;;;;5079060;28;20491;-88
2021/01/31 04:24:32;;;;;;;20.52;11.68;;;-2.10;99.90;;;;;;5079548;28;20065;-89
2021/01/31 04:26:58;;;;;;;21.27;11.65;;;-2.10;99.90;;;;;;5079307;28;20028;-89
2021/01/31 04:29:23;;;;;;;22.00;11.90;;;-2.10;99.90;;;;;;5079507;28;20020;-89
2021/01/31 04:31:49;;;;;;;23.33;13.27;;;-2.20;99.90;;;;;;5079172;28;20031;-89
2021/01/31 04:34:14;;;;;;;23.65;13.50;;;-2.20;99.90;;;;;;5078711;28;20115;-88
2021/01/31 04:36:40;;;;;;;23.60;12.95;;;-2.10;99.90;;;;;;5078476;28;20035;-89
2021/01/31 04:39:06;;;;;;;23.13;13.45;;;-2.10;99.90;;;;;;5079318;28;20392;-89
2021/01/31 04:41:34;;;;;;;21.52;12.40;;;-2.20;99.90;;;;;;5079047;28;20073;-88
2021/01/31 04:44:00;;;;;;;20.73;12.35;;;-2.20;99.90;;;;;;5078650;28;20052;-89
2021/01/31 04:46:39;;;;;;;23.75;13.98;;;-2.20;99.90;;;;;;5078715;28;20479;-89
2021/01/31 04:49:44;;;;;;;23.92;13.02;;;-2.20;99.90;;;;;;5078929;28;20035;-88
2021/01/31 04:52:49;;;;;;;22.80;12.40;;;-2.10;99.90;;;;;;5096919;28;20036;-89
2021/01/31 04:55:20;;;;;;;19.05;10.88;;;-2.10;99.90;;;;;;5078281;28;20081;-88
2021/01/31 04:58:09;;;;;;;21.88;11.75;;;-2.20;99.90;;;;;;5078900;28;20024;-90
2021/01/31 05:00:43;;;;;;;22.63;13.20;;;-2.20;99.90;;;;;;5078659;28;20024;-89
2021/01/31 05:03:10;;;;;;;22.55;12.48;;;-2.20;99.90;;;;;;5078662;28;20052;-88
2021/01/31 05:06:02;;;;;;;17.77;10.77;;;-2.20;99.90;;;;;;5078386;28;20028;-90
2021/01/31 05:08:30;;;;;;;21.67;13.10;;;-2.20;99.90;;;;;;5095847;28;20124;-89
2021/01/31 05:11:09;;;;;;;20.67;11.90;;;-2.20;99.90;;;;;;5095931;28;20036;-89
2021/01/31 05:13:53;;;;;;;22.13;12.32;;;-2.20;99.90;;;;;;5077898;28;20048;-89
2021/01/31 05:16:19;;;;;;;21.77;12.95;;;-2.20;99.90;;;;;;5077436;28;20071;-88
2021/01/31 05:18:47;;;;;;;22.90;13.23;;;-2.20;99.90;;;;;;5077570;28;20495;-90
2021/01/31 05:21:18;;;;;;;22.67;12.50;;;-2.20;99.90;;;;;;5077878;28;20109;-88
2021/01/31 05:23:53;;;;;;;19.20;10.60;;;-2.20;99.90;;;;;;5078249;28;20047;-89
2021/01/31 05:26:19;;;;;;;19.23;11.25;;;-2.20;99.90;;;;;;5077682;28;20020;-89
2021/01/31 05:28:51;;;;;;;20.77;11.27;;;-2.30;99.90;;;;;;5077484;28;20043;-88
2021/01/31 05:31:20;;;;;;;20.80;11.90;;;-2.30;99.90;;;;;;5077752;28;20039;-89
2021/01/31 05:33:53;;;;;;;21.55;12.85;;;-2.30;99.90;;;;;;5077392;28;20027;-89
2021/01/31 05:36:20;;;;;;;21.67;12.63;;;-2.30;99.90;;;;;;5095045;28;20032;-90
2021/01/31 05:38:48;;;;;;;21.90;12.85;;;-2.30;99.90;;;;;;5077452;28;20024;-91
2021/01/31 05:41:48;;;;;;;21.67;14.05;;;-2.30;99.90;;;;;;5077060;28;20056;-88
2021/01/31 05:44:16;;;;;;;21.13;12.48;;;-2.30;99.90;;;;;;5095222;28;20016;-88
2021/01/31 05:46:49;;;;;;;17.15;10.57;;;-2.40;99.90;;;;;;5077120;28;20024;-90
2021/01/31 05:49:31;;;;;;;23.77;13.82;;;-2.30;99.90;;;;;;5077055;28;20032;-89
2021/01/31 05:51:58;;;;;;;21.30;12.15;;;-2.40;99.90;;;;;;5077017;28;20111;-89
2021/01/31 05:54:38;;;;;;;20.77;12.23;;;-2.40;99.90;;;;;;5077026;28;20496;-89
2021/01/31 05:57:28;;;;;;;21.80;12.30;;;-2.40;99.90;;;;;;5077057;28;20048;-88
2021/01/31 05:59:55;;;;;;;21.33;11.95;;;-2.40;99.90;;;;;;5076821;28;20526;-89
2021/01/31 06:02:28;;;;;;;20.92;12.77;;;-2.40;99.90;;;;;;5076472;28;20016;-89
2021/01/31 06:05:13;;;;;;;20.92;12.13;;;-2.40;99.90;;;;;;5076654;28;20477;-90
2021/01/31 06:07:41;;;;;;;23.20;12.88;;;-2.40;99.90;;;;;;5076475;28;20081;-89
2021/01/31 06:10:16;;;;;;;23.15;12.90;;;-2.40;99.90;;;;;;5094844;28;20059;-89
2021/01/31 06:12:44;;;;;;;21.33;12.57;;;-2.40;99.90;;;;;;5076794;28;20607;-89
2021/01/31 06:15:32;;;;;;;22.50;12.65;;;-2.50;99.90;;;;;;5076652;28;20376;-88
2021/01/31 06:18:01;;;;;;;19.58;11.38;;;-2.50;99.90;;;;;;5094463;28;20087;-88
2021/01/31 06:20:36;;;;;;;21.95;12.85;;;-2.50;99.90;;;;;;5076442;28;20055;-88
2021/01/31 06:23:04;;;;;;;24.45;13.02;;;-2.50;99.90;;;;;;5077309;28;20024;-89
2021/01/31 06:25:29;;;;;;;24.30;13.55;;;-2.50;99.90;;;;;;5077129;28;20024;-89
2021/01/31 06:28:11;;;;;;;23.15;12.38;;;-2.60;99.90;;;;;;5077048;28;20026;-88
2021/01/31 06:30:47;;;;;;;23.40;13.35;;;-2.60;99.90;;;;;;5077051;28;20047;-89
2021/01/31 06:33:12;;;;;;;21.70;12.60;;;-2.60;99.90;;;;;;5077424;28;20028;-89
2021/01/31 06:35:38;;;;;;;23.48;13.23;;;-2.60;99.90;;;;;;5076440;28;20020;-89
2021/01/31 06:38:22;;;;;;;23.85;13.45;;;-2.60;99.90;;;;;;5077326;28;20016;-89
2021/01/31 06:41:00;;;;;;;26.33;13.57;;;-2.60;99.90;;;;;;5094874;28;20098;-89
2021/01/31 06:43:42;;;;;;;26.02;13.73;;;-2.60;99.90;;;;;;5077128;28;20024;-89
2021/01/31 06:46:28;;;;;;;23.38;13.00;;;-2.60;99.90;;;;;;5077250;28;20024;-91
2021/01/31 06:49:07;;;;;;;22.77;12.20;;;-2.60;99.90;;;;;;5077459;28;20035;-90
2021/01/31 06:51:45;;;;;;;21.55;12.10;;;-2.60;99.90;;;;;;5077122;28;20514;-90
2021/01/31 06:54:48;;;;;;;21.60;12.18;;;-2.60;99.90;;;;;;5077304;28;20461;-91
2021/01/31 06:58:02;;;;;;;26.37;14.57;;;-2.60;99.90;;;;;;5077098;28;20488;-92
2021/01/31 07:01:07;;;;;;;26.55;14.27;;;-2.70;99.90;;;;;;5077202;28;20070;-91
2021/01/31 07:04:27;;;;;;;24.60;13.80;;;-2.70;99.90;;;;;;5076954;28;20059;-90
2021/01/31 07:07:11;;;;;;;23.42;13.38;;;-2.60;99.90;;;;;;5035944;28;20064;-91
2021/01/31 07:09:55;;;;;;;24.05;13.40;;;-2.70;99.90;;;;;;5073207;28;20074;-90
2021/01/31 07:12:26;;;;;;;24.08;13.20;;;-2.70;99.90;;;;;;5076322;28;20611;-91
2021/01/31 07:15:04;;;;;;;22.75;12.77;;;-2.70;99.90;;;;;;5076115;28;20024;-91
2021/01/31 07:17:43;;;;;;;23.83;12.82;;;-2.60;99.90;;;;;;5076718;28;20016;-90
2021/01/31 07:20:24;;;;;;;23.48;14.00;;;-2.70;99.90;;;;;;5076147;28;20098;-90
2021/01/31 07:23:35;;;;;;;20.95;12.70;;;-2.70;99.90;;;;;;5076488;28;20020;-90
2021/01/31 07:26:15;;;;;;;22.23;12.18;;;-2.70;99.90;;;;;;5035891;28;20029;-90
2021/01/31 07:28:43;;;;;;;20.33;12.05;;;-2.70;99.90;;;;;;5035574;28;20032;-89
2021/01/31 07:31:39;;;;;;;22.83;12.43;;;-2.70;99.90;;;;;;5058991;28;20126;-90
2021/01/31 07:34:28;;;;;;;26.48;14.05;;;-2.60;99.90;;;;;;5076696;28;20023;-90
2021/01/31 07:37:06;;;;;;;24.17;12.90;;;-2.70;99.90;;;;;;5070683;28;20082;-91
2021/01/31 07:40:05;;;;;;;22.13;12.75;;;-2.70;99.90;;;;;;5076949;28;20028;-90
2021/01/31 07:42:33;;;;;;;24.33;14.10;;;-2.60;99.90;;;;;;5063338;28;20028;-90
2021/01/31 07:45:12;;;;;;;26.58;14.55;;;-2.60;99.90;;;;;;5078186;28;20016;-90
2021/01/31 07:47:38;;;;;;;23.13;13.90;;;-2.60;99.90;;;;;;5080558;28;20051;-89
2021/01/31 07:50:03;;;;;;;22.30;12.68;;;-2.60;99.90;;;;;;5080769;28;20064;-91
2021/01/31 07:52:45;;;;;;;21.38;12.45;;;-2.60;99.90;;;;;;5080703;28;20077;-92
2021/01/31 07:55:37;;;;;;;21.70;12.45;;;-2.60;99.90;;;;;;5082012;28;20080;-91
2021/01/31 07:58:21;;;;;;;25.65;13.85;;;-2.50;99.90;;;;;;5080646;28;20115;-91
2021/01/31 08:00:50;;;;;;;25.35;13.32;;;-2.50;99.90;;;;;;5081754;28;20064;-89
2021/01/31 08:03:36;;;;;;;26.98;14.88;;;-2.50;99.90;;;;;;5080782;28;20020;-91
2021/01/31 08:06:09;;;;;;;24.50;13.70;;;-2.40;99.90;;;;;;5080818;28;20366;-92
2021/01/31 08:08:39;;;;;;;25.10;14.77;;;-2.40;99.90;;;;;;5080264;28;20058;-91
2021/01/31 08:11:17;;;;;;;23.35;12.60;;;-2.40;99.90;;;;;;5068660;28;20040;-87
2021/01/31 08:13:48;;;;;;;27.40;14.07;;;-2.30;99.90;;;;;;5073491;28;20028;-89
2021/01/31 08:16:48;;;;;;;22.73;12.90;;;-2.30;99.90;;;;;;5078585;28;20025;-89
2021/01/31 08:19:19;;;;;;;24.08;13.52;;;-2.20;99.90;;;;;;5102157;28;20024;-88
2021/01/31 08:21:51;;;;;;;24.30;13.52;;;-2.10;99.90;;;;;;5099226;28;20432;-88
2021/01/31 08:24:54;;;;;;;23.55;12.65;;;-2.10;99.90;;;;;;5117623;28;20072;-90
2021/01/31 08:27:40;;;;;;;21.63;12.05;;;-2.00;99.90;;;;;;5090430;28;20028;-88
2021/01/31 08:30:25;;;;;;;24.45;13.48;;;-1.90;99.90;;;;;;5101060;28;20114;-89
2021/01/31 08:33:00;;;;;;;23.02;12.40;;;-1.80;99.90;;;;;;5097099;28;20120;-89
2021/01/31 08:35:31;;;;;;;22.80;12.90;;;-1.70;99.90;;;;;;5086219;28;20051;-88
2021/01/31 08:38:24;;;;;;;22.65;13.43;;;-1.70;99.90;;;;;;5076802;28;20123;-89
2021/01/31 08:40:59;;;;;;;23.55;13.18;;;-1.60;99.90;;;;;;5076398;28;20157;-90
2021/01/31 08:43:33;;;;;;;22.65;12.82;;;-1.50;99.90;;;;;;5079471;28;20028;-89
2021/01/31 08:46:18;;;;;;;23.25;13.20;;;-1.40;99.90;;;;;;5079122;28;20161;-91
2021/01/31 08:48:55;;;;;;;23.48;13.18;;;-1.30;99.90;;;;;;5079290;28;20388;-90
2021/01/31 08:51:33;;;;;;;22.92;13.35;;;-1.20;99.90;;;;;;5079078;28;20055;-93
2021/01/31 08:54:03;;;;;;;23.75;14.00;;;-1.20;99.90;;;;;;5079508;28;20012;-92
2021/01/31 08:56:44;;;;;;;26.42;15.73;;;-1.10;99.90;;;;;;5079063;28;20028;-92
2021/01/31 08:59:16;;;;;;;22.60;13.27;;;-1.00;99.90;;;;;;5078192;28;20027;-91
2021/01/31 09:01:45;;;;;;;23.90;13.48;;;-0.90;99.90;;;;;;5078805;28;20523;-88
2021/01/31 09:04:14;;;;;;;21.55;12.18;;;-0.80;99.90;;;;;;5076729;28;20023;-88
2021/01/31 09:06:44;;;;;;;24.92;14.63;;;-0.70;99.90;;;;;;5078007;28;20111;-88
2021/01/31 09:09:26;;;;;;;25.25;15.30;;;-0.60;99.90;;;;;;5109885;28;20027;-88
2021/01/31 09:12:05;;;;;;;25.35;13.88;;;-0.50;99.90;;;;;;5081187;28;20050;-87
2021/01/31 09:14:37;;;;;;;25.65;14.20;;;-0.40;99.90;;;;;;5097947;28;20077;-88
2021/01/31 09:17:09;;;;;;;25.88;14.80;;;-0.40;99.90;;;;;;5097964;28;20071;-88
2021/01/31 09:19:35;;;;;;;27.63;15.75;;;-0.30;99.90;;;;;;5094514;28;20048;-89
2021/01/31 09:22:06;;;;;;;26.65;15.95;;;0.00;99.90;;;;;;5074087;28;20027;-89
2021/01/31 09:24:35;;;;;;;25.85;16.52;;;0.80;99.90;;;;;;5074237;28;20021;-89
2021/01/31 09:27:01;;;;;;;26.23;15.85;;;1.40;99.90;;;;;;5072200;28;20028;-88
2021/01/31 09:29:30;;;;;;;24.88;15.45;;;1.90;99.90;;;;;;5073523;28;20013;-88
2021/01/31 09:32:18;;;;;;;23.23;14.32;;;2.20;99.90;;;;;;5074102;28;20115;-87
2021/01/31 09:34:43;;;;;;;23.60;15.52;;;2.20;99.90;;;;;;5036389;28;20478;-89
2021/01/31 09:37:19;;;;;;;21.15;14.02;;;2.60;99.90;;;;;;5052257;28;20021;-90
2021/01/31 09:39:46;;;;;;;23.33;14.57;;;2.80;99.90;;;;;;5088824;28;20036;-89
2021/01/31 09:42:15;;;;;;;24.85;15.57;;;3.30;99.90;;;;;;5094821;28;20024;-92
2021/01/31 09:44:50;;;;;;;24.55;14.98;;;3.90;99.90;;;;;;5095066;28;20051;-87
2021/01/31 09:47:19;;;;;;;23.67;16.05;;;4.60;99.90;;;;;;5093831;28;20085;-88
2021/01/31 09:49:50;;;;;;;24.92;16.60;;;5.00;99.90;;;;;;5094019;28;20127;-88
2021/01/31 09:52:16;;;;;;;21.15;14.80;;;5.20;99.90;;;;;;5053709;28;20063;-88
2021/01/31 09:54:41;;;;;;;19.98;13.50;;;5.50;99.90;;;;;;5073220;28;20008;-87
2021/01/31 09:57:19;;;;;;;21.23;13.95;;;6.00;99.90;;;;;;5083646;28;20466;-88
2021/01/31 09:59:45;;;;;;;18.95;13.40;;;6.40;99.90;;;;;;5074943;28;20021;-89
2021/01/31 10:02:18;;;;;;;18.88;13.10;;;6.70;99.90;;;;;;5080017;28;20386;-89
2021/01/31 10:04:46;;;;;;;18.63;12.88;;;6.90;99.90;;;;;;5067275;28;20474;-91
2021/01/31 10:07:14;;;;;;;20.67;14.38;;;6.80;99.80;;;;;;5074117;28;20069;-87
2021/01/31 10:09:43;;;;;;;17.90;12.82;;;6.40;99.00;;;;;;5072219;28;20031;-89
2021/01/31 10:12:33;;;;;;;19.70;13.90;;;6.20;98.70;;;;;;5074004;28;20036;-89
2021/01/31 10:15:09;;;;;;;19.13;13.35;;;5.80;99.00;;;;;;5074220;28;20028;-88
2021/01/31 10:17:48;;;;;;;21.60;14.15;;;5.50;99.30;;;;;;5070396;28;20021;-90
2021/01/31 10:20:34;;;;;;;21.30;14.63;;;5.10;98.40;;;;;;5072005;28;20048;-90
2021/01/31 10:23:06;;;;;;;19.00;13.25;;;5.00;98.90;;;;;;5066853;28;20024;-90
2021/01/31 10:25:41;;;;;;;20.33;13.07;;;4.80;98.80;;;;;;5071463;28;20020;-89
2021/01/31 10:28:11;;;;;;;20.65;13.50;;;4.90;98.90;;;;;;5056397;28;20028;-90
2021/01/31 10:30:43;;;;;;;20.65;13.30;;;5.30;98.50;;;;;;5056910;28;20040;-89
2021/01/31 10:33:38;;;;;;;18.88;12.93;;;5.70;98.10;;;;;;5056010;28;20024;-89
2021/01/31 10:36:25;;;;;;;19.15;12.52;;;6.10;97.70;;;;;;5055333;28;20017;-90
2021/01/31 10:38:55;;;;;;;17.15;11.88;;;6.40;97.50;;;;;;5074039;28;20033;-88
2021/01/31 10:41:21;;;;;;;19.67;13.48;;;6.60;97.10;;;;;;5055580;28;20053;-88
2021/01/31 10:43:55;;;;;;;22.17;14.63;;;6.40;96.30;;;;;;5055349;28;20056;-90
2021/01/31 10:46:21;;;;;;;19.25;13.45;;;6.10;95.60;;;;;;5055690;28;20013;-88
2021/01/31 10:48:46;;;;;;;19.55;13.32;;;5.70;96.00;;;;;;5063457;28;20047;-89
2021/01/31 10:51:12;;;;;;;22.98;14.52;;;5.60;96.00;;;;;;5068561;28;20039;-89
2021/01/31 10:53:37;;;;;;;20.42;13.57;;;5.60;95.50;;;;;;5076146;28;20069;-91
2021/01/31 10:56:05;;;;;;;22.55;15.98;;;5.80;95.50;;;;;;5076758;28;20020;-91
2021/01/31 10:58:31;;;;;;;21.88;14.75;;;5.90;94.00;;;;;;5076697;28;20805;-91
2021/01/31 11:00:57;;;;;;;17.63;13.13;;;6.00;94.60;;;;;;5074838;28;20057;-88
2021/01/31 11:03:22;;;;;;;19.08;13.50;;;6.30;94.70;;;;;;5074341;28;20030;-88
2021/01/31 11:05:48;;;;;;;16.92;12.07;;;6.60;94.30;;;;;;5074376;28;20024;-89
2021/01/31 11:08:14;;;;;;;18.27;13.25;;;6.80;94.20;;;;;;5075023;28;20031;-87
2021/01/31 11:10:39;;;;;;;19.73;13.35;;;6.90;93.90;;;;;;5075322;28;20031;-87
2021/01/31 11:13:06;;;;;;;16.70;12.38;;;7.00;93.80;;;;;;5074137;28;20030;-88
2021/01/31 11:15:32;;;;;;;18.05;12.95;;;7.00;93.70;;;;;;5074761;28;20024;-90
2021/01/31 11:17:57;;;;;;;19.00;13.85;;;7.10;93.20;;;;;;5075210;28;20024;-88
2021/01/31 11:20:23;;;;;;;19.50;13.18;;;7.30;93.50;;;;;;5071295;28;20048;-89
2021/01/31 11:22:48;;;;;;;19.27;13.15;;;7.60;93.00;;;;;;5073040;28;20016;-88
2021/01/31 11:25:14;;;;;;;18.48;13.07;;;7.80;92.30;;;;;;5071806;28;20029;-90
2021/01/31 11:27:40;;;;;;;17.92;12.88;;;7.90;91.50;;;;;;5071105;28;20423;-90
2021/01/31 11:30:06;;;;;;;15.77;11.98;;;8.00;91.60;;;;;;5069718;28;20039;-89
2021/01/31 11:32:32;;;;;;;18.10;12.55;;;8.30;92.00;;;;;;5054179;28;20497;-87
2021/01/31 11:34:58;;;;;;;17.65;13.40;;;8.60;91.00;;;;;;5070209;28;20063;-88
2021/01/31 11:37:23;;;;;;;17.25;12.90;;;8.80;90.30;;;;;;5071232;28;20021;-89
2021/01/31 11:39:49;;;;;;;17.77;12.98;;;9.00;88.90;;;;;;5070471;28;20020;-87
2021/01/31 11:42:14;;;;;;;16.35;12.15;;;9.20;88.20;;;;;;5069965;28;20036;-88
2021/01/31 11:44:40;;;;;;;16.15;11.80;;;9.50;88.10;;;;;;5067599;28;20020;-88
2021/01/31 11:47:06;;;;;;;14.65;11.88;;;9.80;87.50;;;;;;5069021;28;20582;-87
2021/01/31 11:49:31;;;;;;;15.32;11.68;;;9.90;84.20;;;;;;5070564;28;20115;-88
2021/01/31 11:51:57;;;;;;;16.27;11.77;;;10.10;83.40;;;;;;5071152;28;20121;-90
2021/01/31 11:54:22;;;;;;;15.32;11.95;;;10.50;81.50;;;;;;5071721;28;20013;-88
2021/01/31 11:56:48;;;;;;;14.63;11.52;;;10.60;80.40;;;;;;5069646;28;20107;-89
2021/01/31 11:59:13;;;;;;;12.90;10.30;;;10.90;78.40;;;;;;5070645;28;20033;-89
2021/01/31 12:01:39;;;;;;;14.07;10.80;;;11.20;79.00;;;;;;5070315;28;20059;-89
2021/01/31 12:04:08;;;;;;;16.20;12.05;;;11.60;78.50;;;;;;5067140;28;20462;-88
2021/01/31 12:06:34;;;;;;;13.82;10.45;;;12.00;75.90;;;;;;5058422;28;20028;-87
2021/01/31 12:09:00;;;;;;;14.27;11.13;;;12.20;76.70;;;;;;5043647;28;20017;-88
2021/01/31 12:11:27;;;;;;;14.30;10.45;;;12.50;75.90;;;;;;5041786;28;20025;-86
2021/01/31 12:13:54;;;;;;;13.85;10.05;;;12.80;75.10;;;;;;5039831;28;20021;-86
2021/01/31 12:16:22;;;;;;;14.30;10.90;;;13.00;74.00;;;;;;5046670;28;20029;-90
2021/01/31 12:18:48;;;;;;;12.18;10.02;;;13.10;71.70;;;;;;5060792;28;20024;-87
2021/01/31 12:21:14;;;;;;;13.75;9.85;;;13.10;72.70;;;;;;5051383;28;20470;-89
2021/01/31 12:23:40;;;;;;;12.90;10.32;;;13.10;72.60;;;;;;5070728;28;20829;-90
2021/01/31 12:26:05;;;;;;;12.10;9.75;;;12.80;71.40;;;;;;5048639;28;20401;-88
2021/01/31 12:28:38;;;;;;;12.45;9.65;;;12.70;72.70;;;;;;5050593;28;20031;-88
2021/01/31 12:31:04;;;;;;;12.57;9.82;;;12.90;71.20;;;;;;5050740;28;20086;-88
2021/01/31 12:33:29;;;;;;;12.63;10.13;;;13.20;71.30;;;;;;5052219;28;20385;-89
2021/01/31 12:36:04;;;;;;;10.95;8.75;;;12.60;70.80;;;;;;5060322;28;20024;-89
2021/01/31 12:38:30;;;;;;;13.60;9.13;;;11.30;72.50;;;;;;5071195;28;20029;-90
2021/01/31 12:40:59;;;;;;;11.13;8.25;;;9.80;75.20;;;;;;5052230;28;20041;-90
2021/01/31 12:43:24;;;;;;;12.43;9.27;;;8.60;78.40;;;;;;5063068;28;20496;-91
2021/01/31 12:45:50;;;;;;;12.07;9.55;;;7.70;80.30;;;;;;5065385;28;20032;-90
2021/01/31 12:48:16;;;;;;;14.07;10.68;;;6.90;81.60;;;;;;5078686;28;20050;-90
2021/01/31 12:50:41;;;;;;;12.25;9.27;;;6.30;86.70;;;;;;5057105;28;20152;-89
2021/01/31 12:53:08;;;;;;;15.82;11.70;;;5.80;88.40;;;;;;5074968;28;20107;-90
2021/01/31 12:55:33;;;;;;;14.05;10.20;;;5.50;88.70;;;;;;5056881;28;20017;-90
2021/01/31 12:57:59;;;;;;;15.05;11.05;;;5.40;89.80;;;;;;5057134;28;20016;-87
2021/01/31 13:00:25;;;;;;;14.35;10.38;;;5.30;89.50;;;;;;5058818;28;20035;-88